sensor_id;sensor_type;location;lat;lon;timestamp;P1;durP1;ratioP1;P2;durP2;ratioP2
69912;SDS011;57198;52.082;5.108;2022-08-24T00:01:08;9.98;;;8.40;;
69912;SDS011;57198;52.082;5.108;2022-08-24T00:03:36;13.80;;;10.63;;
69912;SDS011;57198;52.082;5.108;2022-08-24T00:06:04;13.70;;;9.60;;
69912;SDS011;57198;52.082;5.108;2022-08-24T00:08:32;15.02;;;10.20;;
69912;SDS011;57198;52.082;5.108;2022-08-24T00:11:00;15.93;;;9.90;;
69912;SDS011;57198;52.082;5.108;2022-08-24T00:13:27;13.30;;;10.25;;
69912;SDS011;57198;52.082;5.108;2022-08-24T00:16:04;13.63;;;10.18;;
69912;SDS011;57198;52.082;5.108;2022-08-24T00:18:32;11.88;;;9.18;;
69912;SDS011;57198;52.082;5.108;2022-08-24T00:20:59;12.05;;;9.27;;
69912;SDS011;57198;52.082;5.108;2022-08-24T00:23:27;11.67;;;8.03;;
69912;SDS011;57198;52.082;5.108;2022-08-24T00:25:55;12.48;;;9.25;;
69912;SDS011;57198;52.082;5.108;2022-08-24T00:28:23;10.05;;;8.70;;
69912;SDS011;57198;52.082;5.108;2022-08-24T00:30:51;11.70;;;7.70;;
69912;SDS011;57198;52.082;5.108;2022-08-24T00:33:19;9.73;;;6.55;;
69912;SDS011;57198;52.082;5.108;2022-08-24T00:35:46;8.90;;;6.67;;
69912;SDS011;57198;52.082;5.108;2022-08-24T00:38:15;12.23;;;7.82;;
69912;SDS011;57198;52.082;5.108;2022-08-24T00:40:46;8.75;;;7.80;;
69912;SDS011;57198;52.082;5.108;2022-08-24T00:43:15;9.20;;;6.50;;
69912;SDS011;57198;52.082;5.108;2022-08-24T00:45:45;11.30;;;7.78;;
69912;SDS011;57198;52.082;5.108;2022-08-24T00:48:14;14.63;;;8.63;;
69912;SDS011;57198;52.082;5.108;2022-08-24T00:50:44;11.98;;;7.30;;
69912;SDS011;57198;52.082;5.108;2022-08-24T00:53:23;10.48;;;7.07;;
69912;SDS011;57198;52.082;5.108;2022-08-24T00:55:53;9.13;;;7.30;;
69912;SDS011;57198;52.082;5.108;2022-08-24T00:58:24;12.05;;;7.07;;
69912;SDS011;57198;52.082;5.108;2022-08-24T01:00:54;12.87;;;8.20;;
69912;SDS011;57198;52.082;5.108;2022-08-24T01:03:23;14.93;;;10.43;;
69912;SDS011;57198;52.082;5.108;2022-08-24T01:05:51;12.18;;;9.07;;
69912;SDS011;57198;52.082;5.108;2022-08-24T01:08:19;11.20;;;9.52;;
69912;SDS011;57198;52.082;5.108;2022-08-24T01:10:49;14.07;;;10.00;;
69912;SDS011;57198;52.082;5.108;2022-08-24T01:13:18;12.73;;;9.90;;
69912;SDS011;57198;52.082;5.108;2022-08-24T01:15:47;14.05;;;10.82;;
69912;SDS011;57198;52.082;5.108;2022-08-24T01:18:18;11.65;;;9.48;;
69912;SDS011;57198;52.082;5.108;2022-08-24T01:21:24;14.48;;;9.57;;
69912;SDS011;57198;52.082;5.108;2022-08-24T01:23:57;11.13;;;8.82;;
69912;SDS011;57198;52.082;5.108;2022-08-24T01:28:54;15.25;;;10.05;;
69912;SDS011;57198;52.082;5.108;2022-08-24T01:31:23;11.30;;;8.55;;
69912;SDS011;57198;52.082;5.108;2022-08-24T01:33:51;13.52;;;9.23;;
69912;SDS011;57198;52.082;5.108;2022-08-24T01:36:21;12.90;;;9.80;;
69912;SDS011;57198;52.082;5.108;2022-08-24T01:38:54;9.77;;;8.03;;
69912;SDS011;57198;52.082;5.108;2022-08-24T01:41:23;8.57;;;7.10;;
69912;SDS011;57198;52.082;5.108;2022-08-24T01:43:55;10.82;;;7.55;;
69912;SDS011;57198;52.082;5.108;2022-08-24T01:46:25;10.05;;;8.13;;
69912;SDS011;57198;52.082;5.108;2022-08-24T01:48:53;11.43;;;7.70;;
69912;SDS011;57198;52.082;5.108;2022-08-24T01:51:23;12.63;;;8.83;;
69912;SDS011;57198;52.082;5.108;2022-08-24T01:53:51;15.60;;;11.07;;
69912;SDS011;57198;52.082;5.108;2022-08-24T01:56:19;12.98;;;10.20;;
69912;SDS011;57198;52.082;5.108;2022-08-24T01:58:47;15.27;;;12.45;;
69912;SDS011;57198;52.082;5.108;2022-08-24T02:01:16;14.90;;;11.82;;
69912;SDS011;57198;52.082;5.108;2022-08-24T02:03:45;9.97;;;8.97;;
69912;SDS011;57198;52.082;5.108;2022-08-24T02:06:18;13.43;;;10.80;;
69912;SDS011;57198;52.082;5.108;2022-08-24T02:08:45;11.90;;;9.23;;
69912;SDS011;57198;52.082;5.108;2022-08-24T02:11:13;15.25;;;10.75;;
69912;SDS011;57198;52.082;5.108;2022-08-24T02:13:41;15.88;;;11.75;;
69912;SDS011;57198;52.082;5.108;2022-08-24T02:16:08;15.53;;;11.80;;
69912;SDS011;57198;52.082;5.108;2022-08-24T02:18:36;12.00;;;10.70;;
69912;SDS011;57198;52.082;5.108;2022-08-24T02:21:06;13.35;;;10.57;;
69912;SDS011;57198;52.082;5.108;2022-08-24T02:23:35;13.68;;;10.90;;
69912;SDS011;57198;52.082;5.108;2022-08-24T02:26:03;13.60;;;11.45;;
69912;SDS011;57198;52.082;5.108;2022-08-24T02:28:31;16.20;;;9.80;;
69912;SDS011;57198;52.082;5.108;2022-08-24T02:30:58;18.17;;;10.20;;
69912;SDS011;57198;52.082;5.108;2022-08-24T02:33:28;12.07;;;8.68;;
69912;SDS011;57198;52.082;5.108;2022-08-24T02:35:56;13.13;;;8.57;;
69912;SDS011;57198;52.082;5.108;2022-08-24T02:38:24;11.88;;;9.65;;
69912;SDS011;57198;52.082;5.108;2022-08-24T02:40:51;16.00;;;10.87;;
69912;SDS011;57198;52.082;5.108;2022-08-24T02:43:19;14.57;;;11.25;;
69912;SDS011;57198;52.082;5.108;2022-08-24T02:45:46;15.57;;;11.93;;
69912;SDS011;57198;52.082;5.108;2022-08-24T02:48:17;13.18;;;11.30;;
69912;SDS011;57198;52.082;5.108;2022-08-24T02:50:46;12.35;;;10.40;;
69912;SDS011;57198;52.082;5.108;2022-08-24T02:53:14;16.13;;;11.87;;
69912;SDS011;57198;52.082;5.108;2022-08-24T02:55:42;17.63;;;10.52;;
69912;SDS011;57198;52.082;5.108;2022-08-24T02:58:13;12.95;;;10.18;;
69912;SDS011;57198;52.082;5.108;2022-08-24T03:00:44;13.77;;;11.23;;
69912;SDS011;57198;52.082;5.108;2022-08-24T03:03:13;14.95;;;11.05;;
69912;SDS011;57198;52.082;5.108;2022-08-24T03:05:40;12.93;;;10.67;;
69912;SDS011;57198;52.082;5.108;2022-08-24T03:08:07;16.35;;;13.52;;
69912;SDS011;57198;52.082;5.108;2022-08-24T03:10:37;14.82;;;12.82;;
69912;SDS011;57198;52.082;5.108;2022-08-24T03:13:06;17.63;;;13.52;;
69912;SDS011;57198;52.082;5.108;2022-08-24T03:15:33;16.75;;;12.82;;
69912;SDS011;57198;52.082;5.108;2022-08-24T03:18:01;20.63;;;13.70;;
69912;SDS011;57198;52.082;5.108;2022-08-24T03:20:29;19.58;;;14.50;;
69912;SDS011;57198;52.082;5.108;2022-08-24T03:22:57;16.23;;;14.20;;
69912;SDS011;57198;52.082;5.108;2022-08-24T03:25:24;14.25;;;12.65;;
69912;SDS011;57198;52.082;5.108;2022-08-24T03:27:53;14.93;;;12.60;;
69912;SDS011;57198;52.082;5.108;2022-08-24T03:30:21;18.50;;;13.60;;
69912;SDS011;57198;52.082;5.108;2022-08-24T03:32:49;16.77;;;13.75;;
69912;SDS011;57198;52.082;5.108;2022-08-24T03:35:17;17.45;;;14.27;;
69912;SDS011;57198;52.082;5.108;2022-08-24T03:37:47;18.77;;;14.85;;
69912;SDS011;57198;52.082;5.108;2022-08-24T03:40:16;19.75;;;14.93;;
69912;SDS011;57198;52.082;5.108;2022-08-24T03:42:51;17.57;;;15.13;;
69912;SDS011;57198;52.082;5.108;2022-08-24T03:45:19;18.98;;;15.30;;
69912;SDS011;57198;52.082;5.108;2022-08-24T03:47:47;17.17;;;13.90;;
69912;SDS011;57198;52.082;5.108;2022-08-24T03:50:14;17.23;;;15.43;;
69912;SDS011;57198;52.082;5.108;2022-08-24T03:52:41;20.05;;;14.30;;
69912;SDS011;57198;52.082;5.108;2022-08-24T03:55:09;18.00;;;14.43;;
69912;SDS011;57198;52.082;5.108;2022-08-24T03:57:36;14.52;;;12.27;;
69912;SDS011;57198;52.082;5.108;2022-08-24T04:00:05;15.88;;;12.80;;
69912;SDS011;57198;52.082;5.108;2022-08-24T04:02:39;19.45;;;14.57;;
69912;SDS011;57198;52.082;5.108;2022-08-24T04:05:10;17.38;;;15.52;;
69912;SDS011;57198;52.082;5.108;2022-08-24T04:07:39;15.83;;;12.97;;
69912;SDS011;57198;52.082;5.108;2022-08-24T04:10:07;20.20;;;16.23;;
69912;SDS011;57198;52.082;5.108;2022-08-24T04:12:34;19.50;;;15.50;;
69912;SDS011;57198;52.082;5.108;2022-08-24T04:15:01;22.00;;;15.55;;
69912;SDS011;57198;52.082;5.108;2022-08-24T04:17:29;18.85;;;14.93;;
69912;SDS011;57198;52.082;5.108;2022-08-24T04:19:57;20.77;;;15.50;;
69912;SDS011;57198;52.082;5.108;2022-08-24T04:22:35;17.33;;;14.88;;
69912;SDS011;57198;52.082;5.108;2022-08-24T04:25:03;21.15;;;14.32;;
69912;SDS011;57198;52.082;5.108;2022-08-24T04:27:35;20.58;;;16.60;;
69912;SDS011;57198;52.082;5.108;2022-08-24T04:30:03;21.90;;;16.42;;
69912;SDS011;57198;52.082;5.108;2022-08-24T04:32:38;21.07;;;16.40;;
69912;SDS011;57198;52.082;5.108;2022-08-24T04:35:05;15.38;;;13.38;;
69912;SDS011;57198;52.082;5.108;2022-08-24T04:37:34;20.02;;;16.50;;
69912;SDS011;57198;52.082;5.108;2022-08-24T04:40:02;18.70;;;14.25;;
69912;SDS011;57198;52.082;5.108;2022-08-24T04:42:38;19.58;;;15.40;;
69912;SDS011;57198;52.082;5.108;2022-08-24T04:45:06;20.47;;;14.53;;
69912;SDS011;57198;52.082;5.108;2022-08-24T04:47:34;22.95;;;17.73;;
69912;SDS011;57198;52.082;5.108;2022-08-24T04:50:02;17.33;;;15.43;;
69912;SDS011;57198;52.082;5.108;2022-08-24T04:52:29;20.58;;;16.95;;
69912;SDS011;57198;52.082;5.108;2022-08-24T04:54:57;21.02;;;17.45;;
69912;SDS011;57198;52.082;5.108;2022-08-24T04:57:25;19.83;;;17.20;;
69912;SDS011;57198;52.082;5.108;2022-08-24T04:59:54;20.20;;;17.00;;
69912;SDS011;57198;52.082;5.108;2022-08-24T05:02:22;23.17;;;16.25;;
69912;SDS011;57198;52.082;5.108;2022-08-24T05:04:52;19.65;;;16.58;;
69912;SDS011;57198;52.082;5.108;2022-08-24T05:07:20;21.60;;;16.23;;
69912;SDS011;57198;52.082;5.108;2022-08-24T05:09:48;15.43;;;12.37;;
69912;SDS011;57198;52.082;5.108;2022-08-24T05:12:18;23.50;;;18.33;;
69912;SDS011;57198;52.082;5.108;2022-08-24T05:14:54;20.38;;;17.08;;
69912;SDS011;57198;52.082;5.108;2022-08-24T05:17:22;18.70;;;15.85;;
69912;SDS011;57198;52.082;5.108;2022-08-24T05:19:49;19.88;;;14.02;;
69912;SDS011;57198;52.082;5.108;2022-08-24T05:22:17;25.40;;;16.30;;
69912;SDS011;57198;52.082;5.108;2022-08-24T05:24:49;37.03;;;22.10;;
69912;SDS011;57198;52.082;5.108;2022-08-24T05:27:17;29.63;;;15.40;;
69912;SDS011;57198;52.082;5.108;2022-08-24T05:29:51;19.40;;;14.00;;
69912;SDS011;57198;52.082;5.108;2022-08-24T05:32:18;26.45;;;14.07;;
69912;SDS011;57198;52.082;5.108;2022-08-24T05:34:47;21.40;;;13.50;;
69912;SDS011;57198;52.082;5.108;2022-08-24T05:37:14;21.25;;;14.57;;
69912;SDS011;57198;52.082;5.108;2022-08-24T05:40:01;22.48;;;15.30;;
69912;SDS011;57198;52.082;5.108;2022-08-24T05:42:34;31.08;;;16.42;;
69912;SDS011;57198;52.082;5.108;2022-08-24T05:45:02;30.60;;;17.52;;
69912;SDS011;57198;52.082;5.108;2022-08-24T05:47:29;27.43;;;17.33;;
69912;SDS011;57198;52.082;5.108;2022-08-24T05:50:06;42.50;;;18.15;;
69912;SDS011;57198;52.082;5.108;2022-08-24T05:52:33;23.15;;;12.90;;
69912;SDS011;57198;52.082;5.108;2022-08-24T05:55:01;37.00;;;18.80;;
69912;SDS011;57198;52.082;5.108;2022-08-24T05:57:33;31.13;;;17.95;;
69912;SDS011;57198;52.082;5.108;2022-08-24T06:00:09;26.53;;;14.97;;
69912;SDS011;57198;52.082;5.108;2022-08-24T06:02:47;25.15;;;13.85;;
69912;SDS011;57198;52.082;5.108;2022-08-24T06:05:19;27.88;;;16.60;;
69912;SDS011;57198;52.082;5.108;2022-08-24T06:07:46;28.52;;;15.43;;
69912;SDS011;57198;52.082;5.108;2022-08-24T06:10:16;21.33;;;17.27;;
69912;SDS011;57198;52.082;5.108;2022-08-24T06:13:01;20.93;;;15.50;;
69912;SDS011;57198;52.082;5.108;2022-08-24T06:15:29;28.67;;;14.90;;
69912;SDS011;57198;52.082;5.108;2022-08-24T06:17:56;35.28;;;16.48;;
69912;SDS011;57198;52.082;5.108;2022-08-24T06:20:23;23.83;;;16.77;;
69912;SDS011;57198;52.082;5.108;2022-08-24T06:22:51;33.65;;;14.98;;
69912;SDS011;57198;52.082;5.108;2022-08-24T06:25:20;29.30;;;17.37;;
69912;SDS011;57198;52.082;5.108;2022-08-24T06:28:06;32.03;;;17.80;;
69912;SDS011;57198;52.082;5.108;2022-08-24T06:30:34;34.95;;;17.13;;
69912;SDS011;57198;52.082;5.108;2022-08-24T06:33:13;24.42;;;14.00;;
69912;SDS011;57198;52.082;5.108;2022-08-24T06:35:42;21.45;;;15.75;;
69912;SDS011;57198;52.082;5.108;2022-08-24T06:38:13;21.17;;;16.10;;
69912;SDS011;57198;52.082;5.108;2022-08-24T06:40:43;23.45;;;15.40;;
69912;SDS011;57198;52.082;5.108;2022-08-24T06:43:11;25.30;;;16.10;;
69912;SDS011;57198;52.082;5.108;2022-08-24T06:45:46;31.15;;;16.77;;
69912;SDS011;57198;52.082;5.108;2022-08-24T06:48:16;22.70;;;15.80;;
69912;SDS011;57198;52.082;5.108;2022-08-24T06:50:44;22.17;;;14.93;;
69912;SDS011;57198;52.082;5.108;2022-08-24T06:53:12;18.70;;;14.93;;
69912;SDS011;57198;52.082;5.108;2022-08-24T06:58:17;26.67;;;16.88;;
69912;SDS011;57198;52.082;5.108;2022-08-24T07:00:45;23.60;;;14.82;;
69912;SDS011;57198;52.082;5.108;2022-08-24T07:03:14;24.90;;;16.37;;
69912;SDS011;57198;52.082;5.108;2022-08-24T07:05:50;22.35;;;16.23;;
69912;SDS011;57198;52.082;5.108;2022-08-24T07:08:39;22.20;;;14.95;;
69912;SDS011;57198;52.082;5.108;2022-08-24T07:11:12;21.27;;;15.55;;
69912;SDS011;57198;52.082;5.108;2022-08-24T07:13:40;24.77;;;14.85;;
69912;SDS011;57198;52.082;5.108;2022-08-24T07:16:08;19.43;;;13.50;;
69912;SDS011;57198;52.082;5.108;2022-08-24T07:18:36;18.70;;;13.73;;
69912;SDS011;57198;52.082;5.108;2022-08-24T07:21:07;19.92;;;13.05;;
69912;SDS011;57198;52.082;5.108;2022-08-24T07:23:40;19.25;;;12.68;;
69912;SDS011;57198;52.082;5.108;2022-08-24T07:26:12;15.65;;;11.90;;
69912;SDS011;57198;52.082;5.108;2022-08-24T07:28:50;15.97;;;11.73;;
69912;SDS011;57198;52.082;5.108;2022-08-24T07:31:18;19.83;;;13.27;;
69912;SDS011;57198;52.082;5.108;2022-08-24T07:33:54;18.55;;;12.73;;
69912;SDS011;57198;52.082;5.108;2022-08-24T07:36:22;15.68;;;13.23;;
69912;SDS011;57198;52.082;5.108;2022-08-24T07:38:54;17.42;;;12.70;;
69912;SDS011;57198;52.082;5.108;2022-08-24T07:41:23;29.20;;;12.93;;
69912;SDS011;57198;52.082;5.108;2022-08-24T07:44:11;24.05;;;14.27;;
69912;SDS011;57198;52.082;5.108;2022-08-24T07:46:39;17.80;;;13.00;;
69912;SDS011;57198;52.082;5.108;2022-08-24T07:49:08;18.15;;;12.93;;
69912;SDS011;57198;52.082;5.108;2022-08-24T07:51:57;15.35;;;11.00;;
69912;SDS011;57198;52.082;5.108;2022-08-24T07:54:24;19.80;;;12.83;;
69912;SDS011;57198;52.082;5.108;2022-08-24T07:56:54;17.90;;;12.43;;
69912;SDS011;57198;52.082;5.108;2022-08-24T07:59:21;20.35;;;11.80;;
69912;SDS011;57198;52.082;5.108;2022-08-24T08:01:49;17.80;;;12.20;;
69912;SDS011;57198;52.082;5.108;2022-08-24T08:04:19;12.48;;;10.63;;
69912;SDS011;57198;52.082;5.108;2022-08-24T08:06:47;17.67;;;12.77;;
69912;SDS011;57198;52.082;5.108;2022-08-24T08:09:15;14.95;;;10.95;;
69912;SDS011;57198;52.082;5.108;2022-08-24T08:11:43;12.43;;;9.00;;
69912;SDS011;57198;52.082;5.108;2022-08-24T08:14:11;10.88;;;8.60;;
69912;SDS011;57198;52.082;5.108;2022-08-24T08:16:40;13.45;;;8.70;;
69912;SDS011;57198;52.082;5.108;2022-08-24T08:19:07;10.03;;;7.63;;
69912;SDS011;57198;52.082;5.108;2022-08-24T08:21:45;9.85;;;6.40;;
69912;SDS011;57198;52.082;5.108;2022-08-24T08:24:40;10.20;;;8.80;;
69912;SDS011;57198;52.082;5.108;2022-08-24T08:27:10;17.15;;;10.43;;
69912;SDS011;57198;52.082;5.108;2022-08-24T08:29:38;16.15;;;10.15;;
69912;SDS011;57198;52.082;5.108;2022-08-24T08:32:07;16.43;;;10.20;;
69912;SDS011;57198;52.082;5.108;2022-08-24T08:34:34;12.55;;;9.38;;
69912;SDS011;57198;52.082;5.108;2022-08-24T08:37:02;13.82;;;9.77;;
69912;SDS011;57198;52.082;5.108;2022-08-24T08:39:30;15.73;;;8.25;;
69912;SDS011;57198;52.082;5.108;2022-08-24T08:47:21;13.20;;;8.15;;
69912;SDS011;57198;52.082;5.108;2022-08-24T08:57:19;12.47;;;9.27;;
69912;SDS011;57198;52.082;5.108;2022-08-24T09:05:14;13.35;;;8.00;;
69912;SDS011;57198;52.082;5.108;2022-08-24T09:13:12;11.77;;;8.10;;
69912;SDS011;57198;52.082;5.108;2022-08-24T09:18:25;8.65;;;6.78;;
69912;SDS011;57198;52.082;5.108;2022-08-24T09:26:26;11.35;;;6.00;;
69912;SDS011;57198;52.082;5.108;2022-08-24T09:31:41;9.05;;;6.30;;
69912;SDS011;57198;52.082;5.108;2022-08-24T09:36:51;6.83;;;5.87;;
69912;SDS011;57198;52.082;5.108;2022-08-24T09:55:21;6.45;;;4.18;;
69912;SDS011;57198;52.082;5.108;2022-08-24T10:00:27;6.25;;;3.60;;
69912;SDS011;57198;52.082;5.108;2022-08-24T10:02:58;5.40;;;3.10;;
69912;SDS011;57198;52.082;5.108;2022-08-24T10:05:46;2.88;;;1.80;;
69912;SDS011;57198;52.082;5.108;2022-08-24T10:16:39;3.17;;;1.80;;
69912;SDS011;57198;52.082;5.108;2022-08-24T10:19:11;5.43;;;2.35;;
69912;SDS011;57198;52.082;5.108;2022-08-24T10:21:38;2.63;;;1.88;;
69912;SDS011;57198;52.082;5.108;2022-08-24T10:26:53;5.40;;;2.20;;
69912;SDS011;57198;52.082;5.108;2022-08-24T10:53:48;4.05;;;1.42;;
69912;SDS011;57198;52.082;5.108;2022-08-24T10:56:20;3.33;;;1.27;;
69912;SDS011;57198;52.082;5.108;2022-08-24T11:03:47;4.47;;;1.45;;
69912;SDS011;57198;52.082;5.108;2022-08-24T11:06:15;3.42;;;1.40;;
69912;SDS011;57198;52.082;5.108;2022-08-24T11:09:02;2.30;;;1.50;;
69912;SDS011;57198;52.082;5.108;2022-08-24T11:11:37;4.55;;;2.08;;
69912;SDS011;57198;52.082;5.108;2022-08-24T11:14:07;2.72;;;2.15;;
69912;SDS011;57198;52.082;5.108;2022-08-24T11:16:37;2.28;;;1.70;;
69912;SDS011;57198;52.082;5.108;2022-08-24T11:19:51;3.35;;;1.92;;
69912;SDS011;57198;52.082;5.108;2022-08-24T11:21:54;2.23;;;1.80;;
69912;SDS011;57198;52.082;5.108;2022-08-24T11:26:56;17.30;;;3.00;;
69912;SDS011;57198;52.082;5.108;2022-08-24T11:29:25;8.40;;;1.75;;
69912;SDS011;57198;52.082;5.108;2022-08-24T11:31:53;4.43;;;1.48;;
69912;SDS011;57198;52.082;5.108;2022-08-24T11:34:29;4.30;;;1.40;;
69912;SDS011;57198;52.082;5.108;2022-08-24T11:36:57;3.78;;;1.38;;
69912;SDS011;57198;52.082;5.108;2022-08-24T11:52:30;6.85;;;1.42;;
69912;SDS011;57198;52.082;5.108;2022-08-24T11:55:06;2.75;;;1.80;;
69912;SDS011;57198;52.082;5.108;2022-08-24T11:57:40;4.50;;;1.00;;
69912;SDS011;57198;52.082;5.108;2022-08-24T12:00:17;1.40;;;1.03;;
69912;SDS011;57198;52.082;5.108;2022-08-24T12:02:54;1.88;;;0.90;;
69912;SDS011;57198;52.082;5.108;2022-08-24T12:11:07;2.17;;;1.10;;
69912;SDS011;57198;52.082;5.108;2022-08-24T12:13:47;2.20;;;1.30;;
69912;SDS011;57198;52.082;5.108;2022-08-24T12:16:24;1.20;;;1.10;;
69912;SDS011;57198;52.082;5.108;2022-08-24T12:18:56;3.88;;;0.88;;
69912;SDS011;57198;52.082;5.108;2022-08-24T12:21:26;4.03;;;1.00;;
69912;SDS011;57198;52.082;5.108;2022-08-24T12:24:04;1.67;;;0.70;;
69912;SDS011;57198;52.082;5.108;2022-08-24T12:26:41;1.33;;;0.80;;
69912;SDS011;57198;52.082;5.108;2022-08-24T12:29:25;4.00;;;0.70;;
69912;SDS011;57198;52.082;5.108;2022-08-24T12:32:05;5.45;;;0.80;;
69912;SDS011;57198;52.082;5.108;2022-08-24T12:37:12;2.05;;;0.70;;
69912;SDS011;57198;52.082;5.108;2022-08-24T12:42:24;2.03;;;0.60;;
69912;SDS011;57198;52.082;5.108;2022-08-24T12:55:49;2.25;;;0.60;;
69912;SDS011;57198;52.082;5.108;2022-08-24T13:01:20;1.30;;;0.70;;
69912;SDS011;57198;52.082;5.108;2022-08-24T13:04:30;1.58;;;0.70;;
69912;SDS011;57198;52.082;5.108;2022-08-24T13:06:50;2.27;;;0.57;;
69912;SDS011;57198;52.082;5.108;2022-08-24T13:11:53;1.20;;;0.70;;
69912;SDS011;57198;52.082;5.108;2022-08-24T13:14:23;2.35;;;0.80;;
69912;SDS011;57198;52.082;5.108;2022-08-24T13:21:51;6.65;;;1.08;;
69912;SDS011;57198;52.082;5.108;2022-08-24T13:29:44;1.02;;;0.90;;
69912;SDS011;57198;52.082;5.108;2022-08-24T13:32:38;0.90;;;0.80;;
69912;SDS011;57198;52.082;5.108;2022-08-24T13:38:21;6.07;;;1.02;;
69912;SDS011;57198;52.082;5.108;2022-08-24T13:40:43;3.45;;;1.10;;
69912;SDS011;57198;52.082;5.108;2022-08-24T13:43:20;2.42;;;0.90;;
69912;SDS011;57198;52.082;5.108;2022-08-24T13:48:33;2.95;;;1.08;;
69912;SDS011;57198;52.082;5.108;2022-08-24T13:53:49;2.17;;;0.93;;
69912;SDS011;57198;52.082;5.108;2022-08-24T14:09:34;2.97;;;0.80;;
69912;SDS011;57198;52.082;5.108;2022-08-24T14:25:37;0.80;;;0.70;;
69912;SDS011;57198;52.082;5.108;2022-08-24T14:33:41;3.17;;;1.58;;
69912;SDS011;57198;52.082;5.108;2022-08-24T14:36:20;0.95;;;0.90;;
69912;SDS011;57198;52.082;5.108;2022-08-24T14:38:55;0.83;;;0.83;;
69912;SDS011;57198;52.082;5.108;2022-08-24T14:41:30;2.60;;;1.13;;
69912;SDS011;57198;52.082;5.108;2022-08-24T14:46:43;0.90;;;0.80;;
69912;SDS011;57198;52.082;5.108;2022-08-24T14:57:08;4.00;;;1.17;;
69912;SDS011;57198;52.082;5.108;2022-08-24T15:07:28;5.63;;;0.77;;
69912;SDS011;57198;52.082;5.108;2022-08-24T15:09:57;2.42;;;0.55;;
69912;SDS011;57198;52.082;5.108;2022-08-24T15:12:29;2.35;;;0.82;;
69912;SDS011;57198;52.082;5.108;2022-08-24T15:15:03;1.83;;;0.70;;
69912;SDS011;57198;52.082;5.108;2022-08-24T15:18:21;6.13;;;0.93;;
69912;SDS011;57198;52.082;5.108;2022-08-24T15:25:39;3.58;;;0.85;;
69912;SDS011;57198;52.082;5.108;2022-08-24T15:28:26;1.13;;;0.65;;
69912;SDS011;57198;52.082;5.108;2022-08-24T15:30:59;2.37;;;0.90;;
69912;SDS011;57198;52.082;5.108;2022-08-24T15:33:27;2.83;;;1.20;;
69912;SDS011;57198;52.082;5.108;2022-08-24T15:36:38;2.17;;;0.60;;
69912;SDS011;57198;52.082;5.108;2022-08-24T15:38:46;0.77;;;0.60;;
69912;SDS011;57198;52.082;5.108;2022-08-24T15:43:46;0.50;;;0.50;;
69912;SDS011;57198;52.082;5.108;2022-08-24T15:46:16;4.50;;;3.92;;
69912;SDS011;57198;52.082;5.108;2022-08-24T15:48:45;3.78;;;1.70;;
69912;SDS011;57198;52.082;5.108;2022-08-24T15:51:27;1.70;;;0.95;;
69912;SDS011;57198;52.082;5.108;2022-08-24T15:53:56;1.10;;;0.90;;
69912;SDS011;57198;52.082;5.108;2022-08-24T15:56:25;3.97;;;0.90;;
69912;SDS011;57198;52.082;5.108;2022-08-24T15:59:04;3.20;;;0.85;;
69912;SDS011;57198;52.082;5.108;2022-08-24T16:01:32;2.70;;;0.93;;
69912;SDS011;57198;52.082;5.108;2022-08-24T16:07:31;1.98;;;0.98;;
69912;SDS011;57198;52.082;5.108;2022-08-24T16:10:03;4.30;;;1.30;;
69912;SDS011;57198;52.082;5.108;2022-08-24T16:12:31;2.08;;;0.90;;
69912;SDS011;57198;52.082;5.108;2022-08-24T16:15:17;3.28;;;0.90;;
69912;SDS011;57198;52.082;5.108;2022-08-24T16:17:49;6.95;;;1.30;;
69912;SDS011;57198;52.082;5.108;2022-08-24T16:22:54;3.77;;;1.00;;
69912;SDS011;57198;52.082;5.108;2022-08-24T16:28:07;1.45;;;1.00;;
69912;SDS011;57198;52.082;5.108;2022-08-24T16:33:03;1.52;;;0.80;;
69912;SDS011;57198;52.082;5.108;2022-08-24T16:35:31;2.63;;;0.80;;
69912;SDS011;57198;52.082;5.108;2022-08-24T16:37:59;1.15;;;0.90;;
69912;SDS011;57198;52.082;5.108;2022-08-24T16:40:26;2.72;;;1.00;;
69912;SDS011;57198;52.082;5.108;2022-08-24T16:42:55;2.88;;;1.50;;
69912;SDS011;57198;52.082;5.108;2022-08-24T16:45:23;1.15;;;1.00;;
69912;SDS011;57198;52.082;5.108;2022-08-24T16:47:51;3.40;;;0.97;;
69912;SDS011;57198;52.082;5.108;2022-08-24T16:50:18;3.08;;;0.90;;
69912;SDS011;57198;52.082;5.108;2022-08-24T16:52:47;1.83;;;1.00;;
69912;SDS011;57198;52.082;5.108;2022-08-24T16:55:14;2.78;;;1.20;;
69912;SDS011;57198;52.082;5.108;2022-08-24T16:57:42;2.92;;;1.23;;
69912;SDS011;57198;52.082;5.108;2022-08-24T17:00:11;1.30;;;0.90;;
69912;SDS011;57198;52.082;5.108;2022-08-24T17:02:40;2.58;;;1.20;;
69912;SDS011;57198;52.082;5.108;2022-08-24T17:05:08;2.45;;;1.25;;
69912;SDS011;57198;52.082;5.108;2022-08-24T17:07:36;5.07;;;1.70;;
69912;SDS011;57198;52.082;5.108;2022-08-24T17:10:04;3.05;;;1.30;;
69912;SDS011;57198;52.082;5.108;2022-08-24T17:12:31;2.97;;;1.20;;
69912;SDS011;57198;52.082;5.108;2022-08-24T17:15:02;3.65;;;1.40;;
69912;SDS011;57198;52.082;5.108;2022-08-24T17:17:30;2.65;;;1.10;;
69912;SDS011;57198;52.082;5.108;2022-08-24T17:19:57;3.13;;;1.20;;
69912;SDS011;57198;52.082;5.108;2022-08-24T17:22:25;2.83;;;1.35;;
69912;SDS011;57198;52.082;5.108;2022-08-24T17:24:53;2.97;;;1.40;;
69912;SDS011;57198;52.082;5.108;2022-08-24T17:27:23;2.15;;;1.40;;
69912;SDS011;57198;52.082;5.108;2022-08-24T17:29:52;1.92;;;1.15;;
69912;SDS011;57198;52.082;5.108;2022-08-24T17:32:19;6.53;;;1.58;;
69912;SDS011;57198;52.082;5.108;2022-08-24T17:34:46;2.97;;;1.17;;
69912;SDS011;57198;52.082;5.108;2022-08-24T17:37:14;5.80;;;3.73;;
69912;SDS011;57198;52.082;5.108;2022-08-24T17:39:41;2.05;;;1.80;;
69912;SDS011;57198;52.082;5.108;2022-08-24T17:42:09;2.95;;;1.35;;
69912;SDS011;57198;52.082;5.108;2022-08-24T17:44:56;3.25;;;1.52;;
69912;SDS011;57198;52.082;5.108;2022-08-24T17:47:24;1.45;;;1.25;;
69912;SDS011;57198;52.082;5.108;2022-08-24T17:49:51;5.60;;;1.40;;
69912;SDS011;57198;52.082;5.108;2022-08-24T17:52:19;4.50;;;1.50;;
69912;SDS011;57198;52.082;5.108;2022-08-24T17:54:46;1.52;;;1.23;;
69912;SDS011;57198;52.082;5.108;2022-08-24T17:57:13;8.10;;;1.50;;
69912;SDS011;57198;52.082;5.108;2022-08-24T17:59:41;2.85;;;2.63;;
69912;SDS011;57198;52.082;5.108;2022-08-24T18:02:09;3.97;;;2.03;;
69912;SDS011;57198;52.082;5.108;2022-08-24T18:04:40;4.13;;;1.70;;
69912;SDS011;57198;52.082;5.108;2022-08-24T18:07:10;2.90;;;1.60;;
69912;SDS011;57198;52.082;5.108;2022-08-24T18:09:45;3.53;;;2.05;;
69912;SDS011;57198;52.082;5.108;2022-08-24T18:12:14;3.60;;;2.40;;
69912;SDS011;57198;52.082;5.108;2022-08-24T18:14:41;5.33;;;1.97;;
69912;SDS011;57198;52.082;5.108;2022-08-24T18:17:10;2.33;;;1.45;;
69912;SDS011;57198;52.082;5.108;2022-08-24T18:19:39;3.05;;;1.80;;
69912;SDS011;57198;52.082;5.108;2022-08-24T18:22:06;1.95;;;1.67;;
69912;SDS011;57198;52.082;5.108;2022-08-24T18:24:34;3.20;;;1.95;;
69912;SDS011;57198;52.082;5.108;2022-08-24T18:27:02;3.47;;;1.50;;
69912;SDS011;57198;52.082;5.108;2022-08-24T18:29:36;1.90;;;1.70;;
69912;SDS011;57198;52.082;5.108;2022-08-24T18:32:05;5.10;;;1.70;;
69912;SDS011;57198;52.082;5.108;2022-08-24T18:34:32;5.20;;;4.65;;
69912;SDS011;57198;52.082;5.108;2022-08-24T18:37:00;9.68;;;5.13;;
69912;SDS011;57198;52.082;5.108;2022-08-24T18:39:27;7.20;;;4.63;;
69912;SDS011;57198;52.082;5.108;2022-08-24T18:41:55;2.90;;;2.47;;
69912;SDS011;57198;52.082;5.108;2022-08-24T18:44:24;12.63;;;9.02;;
69912;SDS011;57198;52.082;5.108;2022-08-24T18:46:57;4.35;;;3.35;;